logo
Rechercher aéroport 
image banner adimage banner adimage banner ad
image banner ad

OPPS - Peshawar / Bacha Khan International

Situé à Peshawar Cantt, Pakistan

ICAO - OPPS, IATA - PEW

Données fournies par Airmate  

Information générale

Coordonnées: N33°59'38" E71°30'52"
Élévation : 1211 feet MSL.
 
Évalué:
Voir évaluations:
[VIEW]
Voir autres Aéroports à North-West Frontier

Données opérationnelles

Special qualification required
Heure actuelle UTC:
Heure actuelle locale:
Météo
METAR: OPPS 222300Z 23004KT 7000 HZ NSC 28/14 Q1002 METAR
TAF: TAF OPPS 222300Z 2300/2406 31006KT 6000 NSC BECMG 2314/2316 05006KT 6000 SCT120
Voir NOTAMs / SUP AIP / TFR affectant cet aéroport [VIEW]
Fréquences de communication: [VIEW]

Pistes:

Identifiant RWYQFULongueur (ft)Largeur (ft)SurfaceLDA (ft)
17176°8999151ASP
35356°8999151ASP

Coordonnées de l'aéroport

Adresse: Peshawar Cantt Pakistan

Vue satellite de OPPS